createdAt,value
2022-09-12T00:00:23.870Z,101397.53
2022-09-12T00:02:53.129Z,101401.69
2022-09-12T00:05:21.116Z,101398.63
2022-09-12T00:07:49.345Z,101395.03
2022-09-12T00:10:18.650Z,101394.19
2022-09-12T00:12:46.564Z,101391.44
2022-09-12T00:15:14.518Z,101379.94
2022-09-12T00:17:42.375Z,101379.06
2022-09-12T00:20:11.227Z,101376.59
2022-09-12T00:22:39.910Z,101373.84
2022-09-12T00:25:08.846Z,101374.44
2022-09-12T00:27:38.022Z,101369.44
2022-09-12T00:30:06.398Z,101371.72
2022-09-12T00:32:34.902Z,101353.84
2022-09-12T00:35:03.366Z,101365.63
2022-09-12T00:37:31.270Z,101356.81
2022-09-12T00:39:59.158Z,101364.81
2022-09-12T00:42:27.009Z,101349.19
2022-09-12T00:44:56.191Z,101345.16
2022-09-12T00:47:26.211Z,101347.88
2022-09-12T00:49:57.632Z,101342.41
2022-09-12T00:52:28.676Z,101349.31
2022-09-12T00:54:58.385Z,101338.09
2022-09-12T00:57:29.045Z,101342.75
2022-09-12T01:00:00.587Z,101340.81
2022-09-12T01:02:28.686Z,101337.38
2022-09-12T01:04:56.741Z,101336.28
2022-09-12T01:07:24.682Z,101337.97
2022-09-12T01:09:52.645Z,101333.63
2022-09-12T01:12:20.491Z,101328.75
2022-09-12T01:14:48.256Z,101336.47
2022-09-12T01:17:17.715Z,101323.38
2022-09-12T01:19:58.413Z,101332.50
2022-09-12T01:22:37.814Z,101327.03
2022-09-12T01:25:12.582Z,101324.06
2022-09-12T01:27:49.786Z,101324.13
2022-09-12T01:30:24.049Z,101312.94
2022-09-12T01:33:07.158Z,101320.91
2022-09-12T01:35:41.387Z,101324.00
2022-09-12T01:38:12.395Z,101320.75
2022-09-12T01:40:43.941Z,101307.63
2022-09-12T01:43:21.236Z,101310.09
2022-09-12T01:45:53.686Z,101305.22
2022-09-12T01:48:23.827Z,101304.97
2022-09-12T01:50:53.935Z,101309.97
2022-09-12T01:53:24.758Z,101294.94
2022-09-12T01:55:55.626Z,101301.56
2022-09-12T01:58:26.846Z,101297.50
2022-09-12T02:00:59.685Z,101296.16
2022-09-12T02:03:30.332Z,101301.41
2022-09-12T02:06:01.927Z,101302.84
2022-09-12T02:08:32.509Z,101302.31
2022-09-12T02:11:01.585Z,101300.66
2022-09-12T02:13:32.668Z,101298.03
2022-09-12T02:16:05.614Z,101292.31
2022-09-12T02:18:35.264Z,101289.28
2022-09-12T02:21:06.359Z,101280.59
2022-09-12T02:23:35.875Z,101282.81
2022-09-12T02:26:07.720Z,101275.66
2022-09-12T02:28:37.262Z,101272.69
2022-09-12T02:31:11.245Z,101266.09
2022-09-12T02:33:43.406Z,101261.44
2022-09-12T02:36:14.386Z,101264.25
2022-09-12T02:38:45.329Z,101258.78
2022-09-12T02:41:15.323Z,101258.78
2022-09-12T02:43:43.168Z,101256.03
2022-09-12T02:46:16.883Z,101247.81
2022-09-12T02:48:44.909Z,101233.53
2022-09-12T02:51:13.157Z,101245.66
2022-09-12T02:53:41.684Z,101236.28
2022-09-12T02:56:12.278Z,101236.50
2022-09-12T02:58:40.180Z,101236.75
2022-09-12T03:01:13.288Z,101230.72
2022-09-12T03:03:55.796Z,101220.88
2022-09-12T03:06:31.538Z,101223.63
2022-09-12T03:09:01.928Z,101225.78
2022-09-12T03:11:36.656Z,101232.94
2022-09-12T03:14:11.486Z,101226.38
2022-09-12T03:16:43.607Z,101217.56
2022-09-12T03:19:19.393Z,101223.03
2022-09-12T03:21:53.010Z,101225.53
2022-09-12T03:24:23.276Z,101219.31
2022-09-12T03:26:55.603Z,101223.38
2022-09-12T03:29:25.152Z,101219.53
2022-09-12T03:31:53.851Z,101223.94
2022-09-12T03:34:23.720Z,101225.84
2022-09-12T03:36:51.458Z,101223.69
2022-09-12T03:39:20.412Z,101217.19
2022-09-12T03:41:48.329Z,101219.69
2022-09-12T03:44:16.179Z,101214.00
2022-09-12T03:46:43.972Z,101215.78
2022-09-12T03:49:11.986Z,101208.16
2022-09-12T03:51:41.254Z,101211.97
2022-09-12T03:54:09.037Z,101204.00
2022-09-12T03:56:37.072Z,101211.97
2022-09-12T03:59:06.330Z,101206.56
2022-09-12T04:01:34.919Z,101209.38
2022-09-12T04:04:02.914Z,101204.44
2022-09-12T04:06:31.228Z,101205.53
2022-09-12T04:09:00.378Z,101201.19
2022-09-12T04:11:28.204Z,101195.44
2022-09-12T04:13:56.001Z,101197.44
2022-09-12T04:16:23.949Z,101185.03
2022-09-12T04:18:51.863Z,101192.44
2022-09-12T04:21:21.808Z,101191.59
2022-09-12T04:23:49.646Z,101187.25
2022-09-12T04:26:19.499Z,101191.94
2022-09-12T04:28:47.910Z,101186.75
2022-09-12T04:31:17.851Z,101189.78
2022-09-12T04:33:46.019Z,101182.88
2022-09-12T04:36:16.875Z,101183.94
2022-09-12T04:38:45.458Z,101172.44
2022-09-12T04:41:13.525Z,101178.97
2022-09-12T04:43:43.175Z,101174.31
2022-09-12T04:46:11.904Z,101170.16
2022-09-12T04:48:39.800Z,101173.19
2022-09-12T04:51:08.156Z,101165.53
2022-09-12T04:53:37.020Z,101169.84
2022-09-12T04:56:05.089Z,101164.94
2022-09-12T04:58:33.285Z,101170.09
2022-09-12T05:01:06.423Z,101172.59
2022-09-12T05:03:34.264Z,101165.47
2022-09-12T05:06:03.574Z,101164.88
2022-09-12T05:08:31.599Z,101171.44
2022-09-12T05:11:04.735Z,101177.19
2022-09-12T05:13:33.108Z,101171.13
2022-09-12T05:16:02.258Z,101173.03
2022-09-12T05:18:32.437Z,101173.03
2022-09-12T05:21:00.852Z,101173.56
2022-09-12T05:23:28.891Z,101169.72
2022-09-12T05:25:57.817Z,101167.50
2022-09-12T05:28:26.501Z,101172.75
2022-09-12T05:31:00.955Z,101174.38
2022-09-12T05:33:28.964Z,101168.59
2022-09-12T05:35:58.173Z,101179.06
2022-09-12T05:38:26.222Z,101179.88
2022-09-12T05:40:54.308Z,101174.16
2022-09-12T05:43:22.081Z,101181.53
2022-09-12T05:45:49.980Z,101181.78
2022-09-12T05:48:18.004Z,101178.22
2022-09-12T05:50:46.299Z,101184.91
2022-09-12T05:53:15.751Z,101188.19
2022-09-12T05:55:44.102Z,101189.00
2022-09-12T05:58:11.936Z,101188.19
2022-09-12T06:00:40.140Z,101193.97
2022-09-12T06:03:08.372Z,101191.50
2022-09-12T06:05:36.153Z,101191.22
2022-09-12T06:08:04.059Z,101194.56
2022-09-12T06:10:35.315Z,101195.38
2022-09-12T06:13:04.423Z,101201.44
2022-09-12T06:15:32.230Z,101193.78
2022-09-12T06:18:00.180Z,101186.97
2022-09-12T06:20:28.072Z,101190.25
2022-09-12T06:22:55.928Z,101187.03
2022-09-12T06:25:23.795Z,101195.56
2022-09-12T06:27:54.542Z,101190.66
2022-09-12T06:30:25.514Z,101202.53
2022-09-12T06:32:53.624Z,101200.38
2022-09-12T06:35:21.723Z,101194.94
2022-09-12T06:37:49.583Z,101188.41
2022-09-12T06:40:17.535Z,101193.22
2022-09-12T06:42:45.442Z,101207.84
2022-09-12T06:45:28.693Z,101203.50
2022-09-12T06:47:56.737Z,101201.63
2022-09-12T06:50:24.942Z,101199.41
2022-09-12T06:52:52.781Z,101205.28
2022-09-12T06:55:23.571Z,101206.41
2022-09-12T06:57:55.669Z,101203.13
2022-09-12T07:00:23.455Z,101193.28
2022-09-12T07:02:56.564Z,101196.06
2022-09-12T07:05:24.406Z,101203.25
2022-09-12T07:07:52.191Z,101198.34
2022-09-12T07:10:22.452Z,101199.47
2022-09-12T07:12:50.446Z,101189.59
2022-09-12T07:15:18.385Z,101194.28
2022-09-12T07:17:46.301Z,101188.59
2022-09-12T07:20:16.213Z,101188.63
2022-09-12T07:22:43.986Z,101186.72
2022-09-12T07:25:11.829Z,101188.47
2022-09-12T07:27:39.828Z,101188.75
2022-09-12T07:30:08.579Z,101201.72
2022-09-12T07:32:36.750Z,101203.13
2022-09-12T07:35:04.726Z,101202.59
2022-09-12T07:37:33.953Z,101195.75
2022-09-12T07:40:02.316Z,101201.53
2022-09-12T07:42:31.005Z,101197.97
2022-09-12T07:44:58.867Z,101197.69
2022-09-12T07:47:26.950Z,101194.72
2022-09-12T07:49:54.807Z,101198.28
2022-09-12T07:52:22.601Z,101206.56
2022-09-12T07:54:51.759Z,101198.88
2022-09-12T07:57:19.660Z,101201.63
2022-09-12T07:59:52.924Z,101203.84
2022-09-12T08:02:21.576Z,101197.22
2022-09-12T08:04:49.485Z,101198.38
2022-09-12T08:07:18.378Z,101201.41
2022-09-12T08:09:46.259Z,101198.41
2022-09-12T08:12:16.309Z,101197.56
2022-09-12T08:14:44.625Z,101186.31
2022-09-12T08:17:12.399Z,101191.81
2022-09-12T08:19:40.445Z,101179.69
2022-09-12T08:22:08.316Z,101181.63
2022-09-12T08:24:36.261Z,101178.88
2022-09-12T08:27:04.200Z,101176.47
2022-09-12T08:32:17.571Z,101188.09
2022-09-12T08:34:46.323Z,101184.22
2022-09-12T08:37:14.880Z,101190.00
2022-09-12T08:39:58.474Z,101182.84
2022-09-12T08:42:34.858Z,101186.97
2022-09-12T08:45:17.491Z,101190.00
2022-09-12T08:47:47.789Z,101185.84
2022-09-12T08:50:19.844Z,101183.06
2022-09-12T08:52:52.019Z,101178.69
2022-09-12T08:55:28.653Z,101183.63
2022-09-12T08:57:56.491Z,101184.19
2022-09-12T09:00:29.684Z,101180.88
2022-09-12T09:03:07.542Z,101188.03
2022-09-12T09:05:43.174Z,101187.91
2022-09-12T09:08:35.523Z,101179.59
2022-09-12T09:11:09.844Z,101175.88
2022-09-12T09:14:05.204Z,101174.38
2022-09-12T09:16:37.196Z,101171.09
2022-09-12T09:19:06.571Z,101179.78
2022-09-12T09:21:37.608Z,101159.91
2022-09-12T09:24:06.927Z,101158.94
2022-09-12T09:26:42.603Z,101155.69
2022-09-12T09:29:18.967Z,101147.44
2022-09-12T09:31:50.781Z,101149.41
2022-09-12T09:34:21.878Z,101160.41
2022-09-12T09:36:53.613Z,101159.34
2022-09-12T09:39:28.751Z,101158.84
2022-09-12T09:42:03.045Z,101159.72
2022-09-12T09:44:43.814Z,101157.88
2022-09-12T09:47:16.476Z,101152.56
2022-09-12T09:49:44.996Z,101147.63
2022-09-12T09:52:18.749Z,101137.50
2022-09-12T09:54:53.295Z,101137.59
2022-09-12T09:57:52.451Z,101136.59
2022-09-12T10:00:45.667Z,101125.22
2022-09-12T10:04:01.796Z,101127.91
2022-09-12T10:06:54.861Z,101134.16
2022-09-12T10:09:34.336Z,101132.63
2022-09-12T10:12:21.671Z,101128.47
2022-09-12T10:14:58.974Z,101123.91
2022-09-12T10:17:34.616Z,101117.09
2022-09-12T10:20:27.723Z,101105.03
2022-09-12T10:22:56.033Z,101094.56
2022-09-12T10:25:26.218Z,101098.91
2022-09-12T10:27:55.635Z,101089.63
2022-09-12T10:30:25.230Z,101094.25
2022-09-12T10:32:54.193Z,101105.03
2022-09-12T10:35:24.081Z,101116.47
2022-09-12T10:37:54.729Z,101105.69
2022-09-12T10:40:24.044Z,101102.81
2022-09-12T10:42:53.047Z,101102.81
2022-09-12T10:45:22.590Z,101106.31
2022-09-12T10:47:50.679Z,101095.69
2022-09-12T10:50:22.982Z,101090.34
2022-09-12T10:52:55.251Z,101094.44
2022-09-12T10:55:26.688Z,101093.03
2022-09-12T10:58:07.952Z,101088.53
2022-09-12T11:00:41.948Z,101082.59
2022-09-12T11:03:16.487Z,101079.63
2022-09-12T11:06:07.773Z,101083.19
2022-09-12T11:08:55.802Z,101080.53
2022-09-12T11:12:12.778Z,101073.50
2022-09-12T11:14:50.875Z,101075.13
2022-09-12T11:17:26.533Z,101083.78
2022-09-12T11:20:11.655Z,101076.00
2022-09-12T11:22:54.060Z,101076.84
2022-09-12T11:25:32.865Z,101077.47
2022-09-12T11:28:06.333Z,101081.38
2022-09-12T11:30:38.755Z,101075.59
2022-09-12T11:33:21.224Z,101081.97
2022-09-12T11:35:57.720Z,101088.13
2022-09-12T11:38:46.360Z,101083.00
2022-09-12T11:41:20.134Z,101089.28
2022-09-12T11:43:49.785Z,101085.88
2022-09-12T11:46:21.356Z,101082.56
2022-09-12T11:48:52.683Z,101077.41
2022-09-12T11:51:21.661Z,101078.47
2022-09-12T11:53:58.099Z,101063.94
2022-09-12T11:56:27.452Z,101070.84
2022-09-12T11:58:58.694Z,101074.72
2022-09-12T12:01:29.094Z,101076.53
2022-09-12T12:03:58.195Z,101070.47
2022-09-12T12:06:31.668Z,101073.91
2022-09-12T12:08:59.676Z,101067.09
2022-09-12T12:11:30.622Z,101059.50
2022-09-12T12:14:00.269Z,101065.06
2022-09-12T12:16:29.819Z,101057.13
2022-09-12T12:18:58.788Z,101060.19
2022-09-12T12:21:36.830Z,101057.53
2022-09-12T12:24:24.146Z,101056.34
2022-09-12T12:29:46.059Z,101048.59
2022-09-12T12:32:24.077Z,101051.59
2022-09-12T12:34:51.939Z,101053.16
2022-09-12T12:37:39.825Z,101050.44
2022-09-12T12:40:10.116Z,101024.78
2022-09-12T12:43:08.750Z,101034.75
2022-09-12T12:46:08.975Z,101028.41
2022-09-12T12:48:54.049Z,101029.31
2022-09-12T12:51:49.441Z,101038.13
2022-09-12T12:54:50.680Z,101030.69
2022-09-12T12:57:20.546Z,101025.09
2022-09-12T12:59:50.141Z,101037.63
2022-09-12T13:02:23.636Z,101028.41
2022-09-12T13:04:54.295Z,101013.09
2022-09-12T13:07:32.384Z,101018.91
2022-09-12T13:10:05.739Z,101015.75
2022-09-12T13:12:51.565Z,101010.19
2022-09-12T13:15:43.451Z,101003.84
2022-09-12T13:18:13.253Z,101013.22
2022-09-12T13:20:48.245Z,101010.56
2022-09-12T13:23:26.178Z,101011.53
2022-09-12T13:26:06.461Z,101004.19
2022-09-12T13:28:39.837Z,101016.66
2022-09-12T13:31:13.062Z,101017.53
2022-09-12T13:33:43.415Z,101013.69
2022-09-12T13:36:31.633Z,101022.31
2022-09-12T13:39:07.132Z,101016.59
2022-09-12T13:41:45.640Z,101022.31
2022-09-12T13:44:15.954Z,101020.19
2022-09-12T13:46:44.302Z,101007.31
2022-09-12T13:49:17.578Z,101009.56
2022-09-12T13:51:46.933Z,101013.91
2022-09-12T13:54:22.534Z,101021.56
2022-09-12T13:56:52.288Z,101009.75
2022-09-12T13:59:20.078Z,101005.34
2022-09-12T14:01:48.422Z,101007.19
2022-09-12T14:04:35.960Z,101010.22
2022-09-12T14:07:11.980Z,101014.09
2022-09-12T14:09:41.674Z,101009.56
2022-09-12T14:12:22.057Z,101006.63
2022-09-12T14:14:51.779Z,100991.88
2022-09-12T14:17:23.810Z,100994.16
2022-09-12T14:19:52.712Z,100994.94
2022-09-12T14:22:21.878Z,100991.63
2022-09-12T14:24:51.672Z,100983.28
2022-09-12T14:27:21.750Z,100985.25
2022-09-12T14:29:53.950Z,100971.59
2022-09-12T14:32:23.988Z,100973.06
2022-09-12T14:35:08.462Z,100970.38
2022-09-12T14:37:37.726Z,100975.31
2022-09-12T14:40:20.085Z,100962.13
2022-09-12T14:43:39.966Z,100955.00
2022-09-12T14:46:19.667Z,100957.72
2022-09-12T14:48:48.686Z,100957.41
2022-09-12T14:51:19.555Z,100970.78
2022-09-12T14:53:50.383Z,100966.34
2022-09-12T14:56:18.423Z,100966.34
2022-09-12T14:58:46.341Z,100958.56
2022-09-12T15:01:27.241Z,100954.03
2022-09-12T15:03:56.701Z,100959.88
2022-09-12T15:06:28.012Z,100948.19
2022-09-12T15:08:59.054Z,100961.69
2022-09-12T15:11:27.033Z,100956.66
2022-09-12T15:13:55.077Z,100950.78
2022-09-12T15:16:23.038Z,100956.97
2022-09-12T15:18:51.090Z,100951.53
2022-09-12T15:21:20.497Z,100952.59
2022-09-12T15:23:49.020Z,100949.88
2022-09-12T15:26:19.043Z,100961.19
2022-09-12T15:29:00.419Z,100966.53
2022-09-12T15:31:30.220Z,100971.09
2022-09-12T15:34:05.641Z,100972.09
2022-09-12T15:36:35.655Z,100972.53
2022-09-12T15:39:23.977Z,100966.78
2022-09-12T15:41:54.169Z,100973.34
2022-09-12T15:44:23.685Z,100968.44
2022-09-12T15:46:51.549Z,100969.69
2022-09-12T15:49:19.412Z,100960.66
2022-09-12T15:52:01.091Z,100954.88
2022-09-12T15:54:28.980Z,100945.44
2022-09-12T15:56:58.229Z,100942.75
2022-09-12T15:59:26.167Z,100943.16
2022-09-12T16:01:54.253Z,100947.91
2022-09-12T16:04:28.560Z,100949.53
2022-09-12T16:06:57.076Z,100946.47
2022-09-12T16:09:27.759Z,100943.16
2022-09-12T16:11:55.668Z,100938.88
2022-09-12T16:14:24.915Z,100941.13
2022-09-12T16:16:53.782Z,100936.19
2022-09-12T16:19:22.163Z,100931.78
2022-09-12T16:21:50.453Z,100931.88
2022-09-12T16:24:18.672Z,100928.38
2022-09-12T16:26:46.668Z,100928.19
2022-09-12T16:29:14.930Z,100931.25
2022-09-12T16:31:44.138Z,100930.22
2022-09-12T16:34:12.305Z,100926.63
2022-09-12T16:36:40.273Z,100934.97
2022-09-12T16:39:08.173Z,100926.75
2022-09-12T16:41:35.990Z,100929.22
2022-09-12T16:44:04.118Z,100936.91
2022-09-12T16:46:32.129Z,100933.53
2022-09-12T16:49:01.437Z,100940.84
2022-09-12T16:51:31.864Z,100940.94
2022-09-12T16:57:16.881Z,100933.34
2022-09-12T16:59:47.966Z,100926.25
2022-09-12T17:02:16.295Z,100926.03
2022-09-12T17:04:45.466Z,100933.09
2022-09-12T17:07:13.310Z,100925.31
2022-09-12T17:09:44.144Z,100926.94
2022-09-12T17:12:14.198Z,100919.00
2022-09-12T17:14:42.184Z,100924.53
2022-09-12T17:17:10.231Z,100922.06
2022-09-12T17:19:38.098Z,100920.31
2022-09-12T17:22:07.398Z,100914.13
2022-09-12T17:24:35.847Z,100914.94
2022-09-12T17:27:03.724Z,100917.28
2022-09-12T17:29:31.544Z,100906.81
2022-09-12T17:32:02.623Z,100894.72
2022-09-12T17:34:37.294Z,100897.78
2022-09-12T17:37:07.889Z,100898.38
2022-09-12T17:39:35.770Z,100901.97
2022-09-12T17:42:08.069Z,100897.38
2022-09-12T17:44:37.473Z,100894.59
2022-09-12T17:47:10.988Z,100898.78
2022-09-12T17:50:09.202Z,100895.16
2022-09-12T17:52:46.313Z,100887.78
2022-09-12T17:55:16.979Z,100889.59
2022-09-12T17:57:45.418Z,100899.31
2022-09-12T18:00:13.619Z,100904.38
2022-09-12T18:02:40.577Z,100906.91
2022-09-12T18:05:10.323Z,100904.78
2022-09-12T18:08:01.775Z,100911.75
2022-09-12T18:10:33.121Z,100927.00
2022-09-12T18:13:01.307Z,100927.59
2022-09-12T18:15:29.178Z,100925.97
2022-09-12T18:21:01.585Z,100928.88
2022-09-12T18:23:31.795Z,100938.59
2022-09-12T18:26:28.769Z,100940.84
2022-09-12T18:28:57.088Z,100948.34
2022-09-12T18:31:25.899Z,100951.16
2022-09-12T18:33:53.769Z,100957.84
2022-09-12T18:36:22.901Z,100963.97
2022-09-12T18:38:52.264Z,100961.81
2022-09-12T18:41:21.967Z,100963.50
2022-09-12T18:43:50.190Z,100979.06
2022-09-12T18:46:19.102Z,100989.66
2022-09-12T18:48:47.507Z,101006.25
2022-09-12T18:51:16.302Z,101001.84
2022-09-12T18:55:32.127Z,101013.50
2022-09-12T18:58:00.171Z,101017.38
2022-09-12T19:00:28.619Z,101013.25
2022-09-12T19:02:56.630Z,101014.72
2022-09-12T19:05:24.642Z,101017.78
2022-09-12T19:07:52.716Z,101009.78
2022-09-12T19:10:20.760Z,101006.22
2022-09-12T19:12:50.135Z,101001.00
2022-09-12T19:15:18.307Z,101000.22
2022-09-12T19:17:46.325Z,101003.28
2022-09-12T19:20:14.402Z,101005.50
2022-09-12T19:22:42.448Z,101001.97
2022-09-12T19:25:10.597Z,101004.78
2022-09-12T19:27:38.944Z,101002.56
2022-09-12T19:30:09.958Z,100992.63
2022-09-12T19:32:38.105Z,100997.38
2022-09-12T19:35:06.869Z,100996.84
2022-09-12T19:37:35.120Z,101008.44
2022-09-12T19:40:04.410Z,100998.53
2022-09-12T19:42:32.595Z,100989.72
2022-09-12T19:45:00.588Z,100991.94
2022-09-12T19:47:30.067Z,100993.03
2022-09-12T19:49:58.147Z,100994.47
2022-09-12T19:52:26.190Z,100982.88
2022-09-12T19:54:54.409Z,100983.16
2022-09-12T19:57:22.481Z,100991.44
2022-09-12T19:59:50.558Z,100984.28
2022-09-12T20:02:18.675Z,100972.16
2022-09-12T20:04:48.492Z,100975.22
2022-09-12T20:07:16.495Z,100975.50
2022-09-12T20:09:44.588Z,100964.75
2022-09-12T20:12:14.433Z,100966.16
2022-09-12T20:14:42.397Z,100962.84
2022-09-12T20:17:10.590Z,100955.69
2022-09-12T20:19:38.822Z,100950.72
2022-09-12T20:22:08.192Z,100951.31
2022-09-12T20:24:37.445Z,100950.78
2022-09-12T20:27:05.564Z,100941.16
2022-09-12T20:29:33.523Z,100949.16
2022-09-12T20:32:01.796Z,100943.13
2022-09-12T20:34:29.931Z,100948.94
2022-09-12T20:36:58.246Z,100943.41
2022-09-12T20:39:27.726Z,100938.72
2022-09-12T20:41:55.782Z,100950.34
2022-09-12T20:44:23.804Z,100947.59
2022-09-12T20:46:52.417Z,100944.28
2022-09-12T20:49:20.425Z,100945.69
2022-09-12T20:51:48.728Z,100947.06
2022-09-12T20:54:17.178Z,100953.72
2022-09-12T20:56:46.766Z,100943.25
2022-09-12T20:59:14.758Z,100946.59
2022-09-12T21:01:43.987Z,100938.91
2022-09-12T21:04:15.165Z,100939.16
2022-09-12T21:06:43.522Z,100950.78
2022-09-12T21:09:11.606Z,100954.69
2022-09-12T21:11:39.644Z,100959.91
2022-09-12T21:14:09.002Z,100961.28
2022-09-12T21:16:38.635Z,100969.59
2022-09-12T21:19:07.567Z,100975.44
2022-09-12T21:21:35.655Z,100969.09
2022-09-12T21:24:04.311Z,100968.81
2022-09-12T21:26:33.022Z,100973.81
2022-09-12T21:29:01.103Z,100968.84
2022-09-12T21:31:30.914Z,100965.03
2022-09-12T21:33:58.945Z,100961.44
2022-09-12T21:36:27.024Z,100956.19
2022-09-12T21:38:58.722Z,100967.25
2022-09-12T21:41:26.828Z,100963.94
2022-09-12T21:43:54.761Z,100961.47
2022-09-12T21:46:22.796Z,100955.72
2022-09-12T21:48:52.156Z,100951.28
2022-09-12T21:51:20.141Z,100959.88
2022-09-12T21:53:48.196Z,100952.97
2022-09-12T21:56:16.346Z,100945.78
2022-09-12T21:58:44.431Z,100942.50
2022-09-12T22:01:13.121Z,100941.97
2022-09-12T22:03:44.313Z,100943.06
2022-09-12T22:06:14.870Z,100942.25
2022-09-12T22:08:43.055Z,100940.59
2022-09-12T22:11:11.610Z,100939.22
2022-09-12T22:13:42.818Z,100943.09
2022-09-12T22:16:11.448Z,100937.06
2022-09-12T22:18:40.092Z,100945.59
2022-09-12T22:21:12.351Z,100947.53
2022-09-12T22:23:59.065Z,100948.66
2022-09-12T22:26:28.218Z,100948.34
2022-09-12T22:28:56.281Z,100942.31
2022-09-12T22:31:24.489Z,100952.78
2022-09-12T22:33:52.676Z,100956.38
2022-09-12T22:36:20.732Z,100961.34
2022-09-12T22:38:50.974Z,100958.03
2022-09-12T22:41:19.111Z,100958.03
2022-09-12T22:43:47.060Z,100961.66
2022-09-12T22:46:15.209Z,100955.59
2022-09-12T22:48:43.726Z,100968.56
2022-09-12T22:51:12.405Z,100970.78
2022-09-12T22:53:40.773Z,100966.63
2022-09-12T22:56:10.612Z,100964.44
2022-09-12T22:58:38.844Z,100966.97
2022-09-12T23:01:07.439Z,100965.59
2022-09-12T23:03:36.431Z,100965.03
2022-09-12T23:06:05.622Z,100960.66
2022-09-12T23:08:36.218Z,100962.31
2022-09-12T23:11:05.540Z,100966.44
2022-09-12T23:13:36.316Z,100973.06
2022-09-12T23:16:05.355Z,100965.38
2022-09-12T23:18:35.358Z,100971.44
2022-09-12T23:21:06.630Z,100971.44
2022-09-12T23:23:34.802Z,100989.63
2022-09-12T23:26:07.898Z,100988.00
2022-09-12T23:28:39.128Z,100977.53
2022-09-12T23:31:09.522Z,100974.78
2022-09-12T23:33:37.978Z,100985.81
2022-09-12T23:36:08.494Z,100985.56
2022-09-12T23:38:37.126Z,100983.31
2022-09-12T23:41:05.756Z,100979.75
2022-09-12T23:43:34.109Z,100970.94
2022-09-12T23:46:04.689Z,100968.47
2022-09-12T23:48:33.961Z,100972.59
2022-09-12T23:51:03.087Z,100967.91
2022-09-12T23:53:31.147Z,100957.72
2022-09-12T23:55:59.450Z,100967.66
2022-09-12T23:58:27.416Z,100971.78
